createdAt,value
2022-10-25T00:04:36.815Z,55.01
2022-10-25T00:09:40.809Z,54.87
2022-10-25T00:14:43.433Z,54.97
2022-10-25T00:19:47.027Z,55.04
2022-10-25T00:24:50.989Z,54.81
2022-10-25T00:29:53.788Z,54.75
2022-10-25T00:34:56.443Z,54.58
2022-10-25T00:40:00.480Z,54.75
2022-10-25T00:45:03.560Z,54.67
2022-10-25T00:50:13.836Z,54.70
2022-10-25T00:55:18.079Z,54.58
2022-10-25T01:00:20.811Z,54.38
2022-10-25T01:05:23.880Z,54.36
2022-10-25T01:10:28.019Z,54.44
2022-10-25T01:15:42.142Z,54.47
2022-10-25T01:21:11.264Z,54.41
2022-10-25T01:26:42.196Z,54.39
2022-10-25T01:31:46.729Z,54.40
2022-10-25T01:36:51.678Z,54.30
2022-10-25T01:41:58.164Z,54.41
2022-10-25T01:47:03.503Z,54.58
2022-10-25T01:52:06.335Z,54.51
2022-10-25T01:57:37.346Z,54.48
2022-10-25T02:02:47.858Z,54.51
2022-10-25T02:07:54.463Z,54.54
2022-10-25T02:12:58.061Z,54.64
2022-10-25T02:18:03.029Z,54.65
2022-10-25T02:23:06.520Z,54.67
2022-10-25T02:28:10.296Z,54.70
2022-10-25T02:33:14.331Z,54.88
2022-10-25T02:38:16.980Z,55.03
2022-10-25T02:43:19.666Z,55.01
2022-10-25T02:48:23.846Z,55.17
2022-10-25T02:53:28.630Z,55.31
2022-10-25T02:58:32.041Z,55.48
2022-10-25T03:03:36.107Z,55.44
2022-10-25T03:08:38.776Z,55.48
2022-10-25T03:13:41.421Z,55.58
2022-10-25T03:18:45.495Z,55.64
2022-10-25T03:23:48.174Z,55.63
2022-10-25T03:28:50.810Z,55.74
2022-10-25T03:33:54.759Z,55.94
2022-10-25T03:38:57.453Z,55.91
2022-10-25T03:44:00.145Z,55.87
2022-10-25T03:49:04.324Z,56.16
2022-10-25T03:54:07.021Z,56.34
2022-10-25T03:59:09.796Z,56.34
2022-10-25T04:04:13.759Z,56.60
2022-10-25T04:09:16.742Z,56.73
2022-10-25T04:14:19.415Z,56.77
2022-10-25T04:19:23.393Z,57.02
2022-10-25T04:24:26.081Z,57.18
2022-10-25T04:29:28.774Z,57.29
2022-10-25T04:34:32.770Z,57.54
2022-10-25T04:39:35.461Z,57.61
2022-10-25T04:44:38.166Z,57.76
2022-10-25T04:49:42.133Z,58.10
2022-10-25T04:54:44.810Z,58.11
2022-10-25T04:59:47.485Z,58.30
2022-10-25T05:04:51.490Z,58.27
2022-10-25T05:09:54.136Z,58.49
2022-10-25T05:14:56.809Z,58.60
2022-10-25T05:20:01.004Z,58.52
2022-10-25T05:25:03.831Z,58.67
2022-10-25T05:30:07.615Z,58.84
2022-10-25T05:35:11.688Z,58.93
2022-10-25T05:40:14.464Z,59.01
2022-10-25T05:45:17.281Z,59.06
2022-10-25T05:50:21.377Z,59.12
2022-10-25T05:55:24.150Z,59.33
2022-10-25T06:00:27.084Z,59.47
2022-10-25T06:05:31.144Z,59.41
2022-10-25T06:10:33.821Z,59.40
2022-10-25T06:15:38.112Z,59.22
2022-10-25T06:20:42.195Z,59.21
2022-10-25T06:25:44.936Z,58.85
2022-10-25T06:30:47.622Z,58.66
2022-10-25T06:35:55.675Z,58.48
2022-10-25T06:41:01.316Z,58.59
2022-10-25T06:46:06.320Z,58.42
2022-10-25T06:51:10.614Z,58.20
2022-10-25T06:56:14.889Z,58.10
2022-10-25T07:01:18.831Z,58.32
2022-10-25T07:06:26.286Z,57.78
2022-10-25T07:11:29.869Z,57.55
2022-10-25T07:16:32.528Z,57.33
2022-10-25T07:21:36.694Z,57.17
2022-10-25T07:26:40.371Z,56.67
2022-10-25T07:31:44.205Z,56.27
2022-10-25T07:36:48.286Z,55.85
2022-10-25T07:41:51.041Z,55.77
2022-10-25T07:46:55.429Z,55.72
2022-10-25T07:51:59.528Z,55.40
2022-10-25T07:57:02.249Z,55.29
2022-10-25T08:02:04.983Z,55.34
2022-10-25T08:07:09.021Z,55.37
2022-10-25T08:12:11.754Z,55.22
2022-10-25T08:17:15.615Z,50.84
2022-10-25T08:22:19.753Z,52.22
2022-10-25T08:27:22.452Z,50.22
2022-10-25T08:32:25.440Z,50.04
2022-10-25T08:37:29.480Z,51.33
2022-10-25T08:42:35.112Z,52.67
2022-10-25T08:47:38.971Z,52.84
2022-10-25T08:52:44.883Z,52.99
2022-10-25T08:57:47.926Z,53.14
2022-10-25T09:02:52.781Z,53.25
2022-10-25T09:08:04.872Z,53.60
2022-10-25T09:13:11.297Z,53.76
2022-10-25T09:18:16.407Z,53.93
2022-10-25T09:23:25.986Z,54.15
2022-10-25T09:28:35.397Z,54.65
2022-10-25T09:33:38.159Z,54.87
2022-10-25T09:38:43.559Z,54.94
2022-10-25T09:43:48.448Z,55.47
2022-10-25T09:48:53.831Z,55.59
2022-10-25T09:53:57.830Z,55.54
2022-10-25T09:59:04.323Z,55.64
2022-10-25T10:04:24.626Z,55.74
2022-10-25T10:09:29.520Z,55.45
2022-10-25T10:14:35.724Z,55.53
2022-10-25T10:19:38.455Z,55.64
2022-10-25T10:24:43.255Z,55.93
2022-10-25T10:29:53.271Z,55.73
2022-10-25T10:34:56.489Z,55.89
2022-10-25T10:40:01.594Z,56.25
2022-10-25T10:45:15.402Z,57.76
2022-10-25T10:50:24.368Z,57.52
2022-10-25T10:55:29.711Z,57.11
2022-10-25T11:00:32.823Z,56.88
2022-10-25T11:05:36.246Z,56.52
2022-10-25T11:10:40.438Z,56.07
2022-10-25T11:16:21.003Z,55.98
2022-10-25T11:21:33.773Z,55.95
2022-10-25T11:26:47.185Z,55.71
2022-10-25T11:31:54.725Z,55.77
2022-10-25T11:37:03.272Z,55.89
2022-10-25T11:42:16.570Z,55.89
2022-10-25T11:47:25.227Z,55.75
2022-10-25T11:52:56.826Z,56.00
2022-10-25T11:58:08.019Z,55.76
2022-10-25T12:03:18.471Z,55.17
2022-10-25T12:08:27.018Z,54.65
2022-10-25T12:13:32.031Z,54.24
2022-10-25T12:18:38.033Z,53.95
2022-10-25T12:23:42.881Z,53.91
2022-10-25T12:28:47.435Z,53.36
2022-10-25T12:33:52.595Z,52.84
2022-10-25T12:38:55.422Z,52.32
2022-10-25T12:44:12.036Z,52.68
2022-10-25T12:49:23.160Z,52.86
2022-10-25T12:54:45.551Z,52.68
2022-10-25T12:59:58.027Z,52.49
2022-10-25T13:05:08.654Z,52.64
2022-10-25T13:10:17.651Z,48.53
2022-10-25T13:15:21.882Z,51.88
2022-10-25T13:20:46.022Z,52.19
2022-10-25T13:26:06.365Z,53.36
2022-10-25T13:31:38.689Z,52.58
2022-10-25T13:36:48.015Z,52.05
2022-10-25T13:41:50.749Z,52.24
2022-10-25T13:46:54.995Z,52.50
2022-10-25T13:51:58.559Z,53.15
2022-10-25T13:57:01.243Z,53.53
2022-10-25T14:02:17.169Z,53.39
2022-10-25T14:07:47.780Z,53.72
2022-10-25T14:12:50.694Z,53.38
2022-10-25T14:17:54.929Z,53.34
2022-10-25T14:23:00.264Z,53.42
2022-10-25T14:28:14.042Z,53.46
2022-10-25T14:33:41.872Z,53.55
2022-10-25T14:38:51.877Z,53.64
2022-10-25T14:43:56.006Z,53.65
2022-10-25T14:49:01.353Z,53.32
2022-10-25T14:54:05.238Z,53.66
2022-10-25T14:59:09.234Z,53.80
2022-10-25T15:04:13.904Z,53.67
2022-10-25T15:09:41.715Z,54.02
2022-10-25T15:14:41.702Z,53.69
2022-10-25T15:20:02.886Z,53.13
2022-10-25T15:25:17.661Z,52.77
2022-10-25T15:30:36.331Z,53.46
2022-10-25T15:35:47.148Z,53.22
2022-10-25T15:40:50.091Z,53.32
2022-10-25T15:45:52.951Z,53.29
2022-10-25T15:50:57.790Z,53.55
2022-10-25T15:56:00.457Z,54.89
2022-10-25T16:01:03.200Z,55.62
2022-10-25T16:06:07.909Z,55.48
2022-10-25T16:11:13.264Z,55.55
2022-10-25T16:16:38.948Z,55.55
2022-10-25T16:21:42.423Z,55.52
2022-10-25T16:26:45.918Z,55.51
2022-10-25T16:31:48.668Z,55.59
2022-10-25T16:36:53.838Z,55.64
2022-10-25T16:41:58.323Z,55.47
2022-10-25T16:47:01.058Z,55.55
2022-10-25T16:52:06.085Z,55.23
2022-10-25T16:57:08.824Z,55.26
2022-10-25T17:02:16.488Z,55.16
2022-10-25T17:07:20.835Z,55.20
2022-10-25T17:12:23.618Z,55.37
2022-10-25T17:17:26.468Z,55.15
2022-10-25T17:22:30.627Z,55.27
2022-10-25T17:27:35.151Z,55.42
2022-10-25T17:32:37.931Z,55.54
2022-10-25T17:37:43.934Z,55.19
2022-10-25T17:42:46.919Z,55.49
2022-10-25T17:47:50.022Z,55.54
2022-10-25T17:52:54.537Z,55.42
2022-10-25T17:57:57.253Z,55.10
2022-10-25T18:03:00.165Z,55.14
2022-10-25T18:08:04.208Z,54.81
2022-10-25T18:13:06.934Z,54.90
2022-10-25T18:18:09.801Z,54.54
2022-10-25T18:23:14.007Z,54.23
2022-10-25T18:28:16.696Z,54.91
2022-10-25T18:33:23.717Z,55.07
2022-10-25T18:38:28.333Z,55.38
2022-10-25T18:43:31.066Z,55.44
2022-10-25T18:48:33.950Z,55.42
2022-10-25T18:53:39.323Z,55.42
2022-10-25T18:58:42.022Z,55.52
2022-10-25T19:03:44.986Z,55.39
2022-10-25T19:08:49.367Z,55.41
2022-10-25T19:13:53.936Z,55.42
2022-10-25T19:18:56.838Z,55.23
2022-10-25T19:24:00.828Z,55.09
2022-10-25T19:29:03.486Z,55.08
2022-10-25T19:34:06.254Z,54.87
2022-10-25T19:39:10.622Z,54.75
2022-10-25T19:44:13.401Z,54.57
2022-10-25T19:49:16.688Z,54.26
2022-10-25T19:54:20.669Z,54.41
2022-10-25T19:59:23.341Z,54.17
2022-10-25T20:04:54.478Z,54.14
2022-10-25T20:09:58.545Z,54.09
2022-10-25T20:15:01.263Z,53.89
2022-10-25T20:20:04.308Z,53.74
2022-10-25T20:25:08.758Z,53.62
2022-10-25T20:30:11.739Z,53.55
2022-10-25T20:35:14.676Z,53.27
2022-10-25T20:40:20.666Z,53.39
2022-10-25T20:45:23.323Z,53.36
2022-10-25T20:50:26.790Z,53.45
2022-10-25T20:55:31.092Z,52.62
2022-10-25T21:00:33.768Z,52.40
2022-10-25T21:05:36.974Z,52.48
2022-10-25T21:10:41.200Z,52.14
2022-10-25T21:15:46.521Z,52.09
2022-10-25T21:20:49.638Z,52.29
2022-10-25T21:25:59.583Z,52.19
2022-10-25T21:31:02.873Z,52.17
2022-10-25T21:36:06.777Z,52.03
2022-10-25T21:41:11.707Z,52.22
2022-10-25T21:46:15.230Z,52.03
2022-10-25T21:51:18.086Z,51.82
2022-10-25T21:56:23.406Z,52.06
2022-10-25T22:01:27.232Z,51.91
2022-10-25T22:06:30.332Z,51.89
2022-10-25T22:11:35.998Z,51.89
2022-10-25T22:16:38.786Z,52.05
2022-10-25T22:21:41.497Z,51.83
2022-10-25T22:26:45.995Z,51.93
2022-10-25T22:31:48.679Z,51.81
2022-10-25T22:36:51.338Z,51.79
2022-10-25T22:41:55.780Z,51.58
2022-10-25T22:46:58.415Z,51.55
2022-10-25T22:52:01.163Z,51.36
2022-10-25T22:57:05.455Z,51.71
2022-10-25T23:02:08.082Z,51.46
2022-10-25T23:07:10.740Z,51.50
2022-10-25T23:12:14.770Z,51.72
2022-10-25T23:17:17.442Z,51.22
2022-10-25T23:22:20.179Z,51.43
2022-10-25T23:27:24.165Z,51.51
2022-10-25T23:32:26.888Z,51.29
2022-10-25T23:37:29.552Z,51.37
2022-10-25T23:42:33.595Z,51.11
2022-10-25T23:47:36.278Z,51.21
2022-10-25T23:52:39.156Z,51.12
2022-10-25T23:57:43.565Z,51.14
